Ana Sayfa
METAR-TAF:

METAR-TAF

Havaalanları :

Kahramanmaraş Havalimanı

Kahramanmaraş, Türkiye

Enlem: 37-32-20N, Boylam: 036-57-12E, yükseklik: 525 m

Güncel hava durumu gözlemi

Rapor saat 20:50 UTC de 57 dakika önce yapıldı.
Rüzgar doğudan 5 kt
Sıcaklık 9°C
Nem 57%
Basınç 1020 hPa
Görüş mesafesi 10 km veya daha fazla
1500 m altında bulut yok ve kümülonimbus yok

METAR: LTCN 162050Z 08005KT CAVOK 09/01 Q1020 NOSIG

Saat: 00:47 (21:47 UTC)

Tahmin

Rapor saat 19:40 UTC de 2 saat ve 7 dakika önce yapıldı.
Ayın 16'si saat 21 UTC'den ayın 17'si saat 06 UTC'ye kadar geçerli Tahmin
Rüzgar değişken yönden 2 kt
Görüş mesafesi 10 km veya daha fazla
1500 m altında bulut yok ve kümülonimbus yok
Dönüşüyor
ayın 17'si saat 03 UTC'den ayın 17'si saat 06 UTC'ye kadar
Rüzgar doğudan 12 kt

TAF: LTCN 161940Z 1621/1706 VRB02KT CAVOK BECMG 1703/1706 08012KT

4.000'den fazla havaalanı için hava durumu gözlemleri ve tahminleri (METAR ve TAF raporları).

Kullanılabilir istasyonlar harita üzerinde sarı ve kırmızı noktalarla gösterilir.

İstasyonun adını görmek için fareyi noktanın üzerinde gezdirin.

Sonrasında hava gözlem ve tahminlerini görmek için tıklayın.

Haritayı değiştirmek için: yaklaştırmak için siyah artı işaretli yeşil düğmeye ve uzaklaştırmak için de eksi işaretli düğmeye hızla tıklayın; bitişik haritalar için yeşil okları kullanın.


METAR-TAF: